createdAt,value
2019-03-23T00:01:54.139Z,10.43
2019-03-23T00:04:25.445Z,7.37
2019-03-23T00:06:55.393Z,10.43
2019-03-23T00:09:25.003Z,9.33
2019-03-23T00:11:56.806Z,8.37
2019-03-23T00:14:26.433Z,9.87
2019-03-23T00:16:58.260Z,7.03
2019-03-23T00:19:30.152Z,9.37
2019-03-23T00:21:59.772Z,9.13
2019-03-23T00:24:31.652Z,7.60
2019-03-23T00:27:04.054Z,9.53
2019-03-23T00:29:35.035Z,8.57
2019-03-23T00:32:04.660Z,9.67
2019-03-23T00:34:35.462Z,8.43
2019-03-23T00:37:05.149Z,9.80
2019-03-23T00:39:34.764Z,10.57
2019-03-23T00:42:04.381Z,8.13
2019-03-23T00:44:34.002Z,7.83
2019-03-23T00:47:03.589Z,6.63
2019-03-23T00:49:33.276Z,8.27
2019-03-23T00:52:02.884Z,10.80
2019-03-23T00:54:32.490Z,9.47
2019-03-23T00:57:04.674Z,9.07
2019-03-23T00:59:34.305Z,10.27
2019-03-23T01:02:03.989Z,12.40
2019-03-23T01:04:34.680Z,8.10
2019-03-23T01:07:04.701Z,9.77
2019-03-23T01:09:34.325Z,9.37
2019-03-23T01:12:04.104Z,9.70
2019-03-23T01:14:37.155Z,8.27
2019-03-23T01:17:06.775Z,13.83
2019-03-23T01:19:36.400Z,9.93
2019-03-23T01:22:07.391Z,8.33
2019-03-23T01:24:36.995Z,10.77
2019-03-23T01:27:06.645Z,9.57
2019-03-23T01:29:37.261Z,8.77
2019-03-23T01:32:09.080Z,8.17
2019-03-23T01:34:38.656Z,9.73
2019-03-23T01:37:08.320Z,11.33
2019-03-23T01:39:40.271Z,7.93
2019-03-23T01:42:10.058Z,8.57
2019-03-23T01:44:39.714Z,9.93
2019-03-23T01:47:09.449Z,10.67
2019-03-23T01:49:39.033Z,12.00
2019-03-23T01:52:09.752Z,11.70
2019-03-23T01:54:39.390Z,10.57
2019-03-23T01:57:11.342Z,9.97
2019-03-23T01:59:42.353Z,10.83
2019-03-23T02:02:12.090Z,10.30
2019-03-23T02:04:41.712Z,8.93
2019-03-23T02:07:14.364Z,10.83
2019-03-23T02:09:45.006Z,9.33
2019-03-23T02:12:16.693Z,8.83
2019-03-23T02:14:46.365Z,8.00
2019-03-23T02:17:16.103Z,11.67
2019-03-23T02:19:45.853Z,10.27
2019-03-23T02:22:15.450Z,11.60
2019-03-23T02:24:45.144Z,8.40
2019-03-23T02:27:14.859Z,8.57
2019-03-23T02:29:44.515Z,11.20
2019-03-23T02:32:14.182Z,8.67
2019-03-23T02:34:43.847Z,9.17
2019-03-23T02:37:26.916Z,10.77
2019-03-23T02:39:44.757Z,10.00
2019-03-23T02:42:14.396Z,9.20
2019-03-23T02:44:44.051Z,9.10
2019-03-23T02:47:15.531Z,11.70
2019-03-23T02:49:45.221Z,10.93
2019-03-23T02:52:14.886Z,11.87
2019-03-23T02:54:44.519Z,16.03
2019-03-23T02:57:14.184Z,16.27
2019-03-23T02:59:43.969Z,14.37
2019-03-23T03:02:13.607Z,15.53
2019-03-23T03:04:43.270Z,16.90
2019-03-23T03:07:12.950Z,12.67
2019-03-23T03:09:42.561Z,16.00
2019-03-23T03:12:12.190Z,12.60
2019-03-23T03:14:41.946Z,12.63
2019-03-23T03:17:11.669Z,15.30
2019-03-23T03:19:41.362Z,17.13
2019-03-23T03:22:10.984Z,18.47
2019-03-23T03:24:41.615Z,14.70
2019-03-23T03:27:11.303Z,17.67
2019-03-23T03:29:43.375Z,16.00
2019-03-23T03:32:13.145Z,15.80
2019-03-23T03:34:44.156Z,13.87
2019-03-23T03:37:13.896Z,15.07
2019-03-23T03:39:43.833Z,15.17
2019-03-23T03:42:13.585Z,18.23
2019-03-23T03:44:44.507Z,14.67
2019-03-23T03:47:14.226Z,15.43
2019-03-23T03:49:45.954Z,15.30
2019-03-23T03:52:15.529Z,17.57
2019-03-23T03:54:45.170Z,14.53
2019-03-23T03:57:15.157Z,17.80
2019-03-23T03:59:44.792Z,16.93
2019-03-23T04:02:16.287Z,17.47
2019-03-23T04:04:49.343Z,16.03
2019-03-23T04:07:19.155Z,19.17
2019-03-23T04:09:48.821Z,18.47
2019-03-23T04:12:18.444Z,20.13
2019-03-23T04:14:49.964Z,15.20
2019-03-23T04:17:21.923Z,16.03
2019-03-23T04:19:51.582Z,15.47
2019-03-23T04:22:24.521Z,15.33
2019-03-23T04:24:56.144Z,17.27
2019-03-23T04:27:26.060Z,11.93
2019-03-23T04:29:59.679Z,15.00
2019-03-23T04:32:29.990Z,14.00
2019-03-23T04:35:01.330Z,13.37
2019-03-23T04:37:34.871Z,12.60
2019-03-23T04:40:04.720Z,14.00
2019-03-23T04:42:34.414Z,11.73
2019-03-23T04:45:05.419Z,13.27
2019-03-23T04:47:35.172Z,13.57
2019-03-23T04:50:05.301Z,12.90
2019-03-23T04:52:38.535Z,15.67
2019-03-23T04:55:10.230Z,13.23
2019-03-23T04:57:40.844Z,12.57
2019-03-23T05:00:11.123Z,13.33
2019-03-23T05:02:41.193Z,13.93
2019-03-23T05:05:15.111Z,14.67
2019-03-23T05:07:47.325Z,14.60
2019-03-23T05:10:17.003Z,14.40
2019-03-23T05:12:46.727Z,14.93
2019-03-23T05:15:16.451Z,15.17
2019-03-23T05:17:46.144Z,14.70
2019-03-23T05:20:28.267Z,13.07
2019-03-23T05:22:59.598Z,11.70
2019-03-23T05:25:29.216Z,11.17
2019-03-23T05:28:01.712Z,11.37
2019-03-23T05:30:31.295Z,11.00
2019-03-23T05:33:03.233Z,13.70
2019-03-23T05:35:35.241Z,12.47
2019-03-23T05:38:04.912Z,13.37
2019-03-23T05:40:34.549Z,12.53
2019-03-23T05:43:04.236Z,13.93
2019-03-23T05:45:33.843Z,12.17
2019-03-23T05:48:03.575Z,10.43
2019-03-23T05:50:36.251Z,16.43
2019-03-23T05:53:07.240Z,14.23
2019-03-23T05:55:36.950Z,12.50
2019-03-23T05:58:06.691Z,12.80
2019-03-23T06:00:36.295Z,12.77
2019-03-23T06:03:05.981Z,13.03
2019-03-23T06:05:35.651Z,13.37
2019-03-23T06:08:05.301Z,12.60
2019-03-23T06:10:34.920Z,18.93
2019-03-23T06:13:04.590Z,15.30
2019-03-23T06:15:36.618Z,13.10
2019-03-23T06:18:06.376Z,14.13
2019-03-23T06:20:36.027Z,11.93
2019-03-23T06:23:05.788Z,13.07
2019-03-23T06:25:35.675Z,13.67
2019-03-23T06:28:05.355Z,11.33
2019-03-23T06:30:35.027Z,14.37
2019-03-23T06:33:04.700Z,15.40
2019-03-23T06:35:36.563Z,13.53
2019-03-23T06:38:06.267Z,14.27
2019-03-23T06:40:37.939Z,12.93
2019-03-23T06:43:09.641Z,13.87
2019-03-23T06:45:39.373Z,14.50
2019-03-23T06:48:09.034Z,16.23
2019-03-23T06:50:38.859Z,16.73
2019-03-23T06:53:09.730Z,12.73
2019-03-23T06:55:39.591Z,13.13
2019-03-23T06:58:09.356Z,14.20
2019-03-23T07:00:39.013Z,16.37
2019-03-23T07:03:12.143Z,17.00
2019-03-23T07:05:41.904Z,17.57
2019-03-23T07:08:11.589Z,17.93
2019-03-23T07:10:41.419Z,17.63
2019-03-23T07:13:11.108Z,14.10
2019-03-23T07:15:43.038Z,16.10
2019-03-23T07:18:12.649Z,20.03
2019-03-23T07:20:42.386Z,15.60
2019-03-23T07:23:12.051Z,16.47
2019-03-23T07:25:43.229Z,13.43
2019-03-23T07:28:12.927Z,13.13
2019-03-23T07:30:42.587Z,14.63
2019-03-23T07:33:14.783Z,13.33
2019-03-23T07:35:44.515Z,14.47
2019-03-23T07:38:14.496Z,11.23
2019-03-23T07:40:47.025Z,11.73
2019-03-23T07:43:16.961Z,14.30
2019-03-23T07:45:46.585Z,13.83
2019-03-23T07:48:16.177Z,13.80
2019-03-23T07:50:45.859Z,16.43
2019-03-23T07:53:15.635Z,12.07
2019-03-23T07:55:45.316Z,14.67
2019-03-23T07:58:15.040Z,14.50
2019-03-23T08:00:46.030Z,13.90
2019-03-23T08:03:16.819Z,16.10
2019-03-23T08:05:46.534Z,14.97
2019-03-23T08:08:16.166Z,14.80
2019-03-23T08:10:46.374Z,17.10
2019-03-23T08:13:17.596Z,13.87
2019-03-23T08:15:47.231Z,17.60
2019-03-23T08:18:17.003Z,15.53
2019-03-23T08:20:46.983Z,19.70
2019-03-23T08:23:16.846Z,16.27
2019-03-23T08:25:46.848Z,17.50
2019-03-23T08:28:16.570Z,17.50
2019-03-23T08:30:46.376Z,17.20
2019-03-23T08:33:18.378Z,17.17
2019-03-23T08:35:47.972Z,17.77
2019-03-23T08:38:17.948Z,19.57
2019-03-23T08:40:47.972Z,16.13
2019-03-23T08:43:17.892Z,19.47
2019-03-23T08:45:47.730Z,21.57
2019-03-23T08:48:17.332Z,20.57
2019-03-23T08:50:48.910Z,19.70
2019-03-23T08:53:24.465Z,22.90
2019-03-23T08:55:54.269Z,22.13
2019-03-23T08:58:31.150Z,22.63
2019-03-23T09:01:01.261Z,19.20
2019-03-23T09:03:32.214Z,21.13
2019-03-23T09:06:01.889Z,22.77
2019-03-23T09:08:33.907Z,21.87
2019-03-23T09:11:03.646Z,22.90
2019-03-23T09:13:40.515Z,23.30
2019-03-23T09:16:05.775Z,23.23
2019-03-23T09:18:35.395Z,22.43
2019-03-23T09:21:05.033Z,22.40
2019-03-23T09:23:36.131Z,24.47
2019-03-23T09:26:05.785Z,25.40
2019-03-23T09:28:35.406Z,22.77
2019-03-23T09:31:05.093Z,28.53
2019-03-23T09:33:34.715Z,25.50
2019-03-23T09:36:04.361Z,25.73
2019-03-23T09:38:33.990Z,26.80
2019-03-23T09:41:03.651Z,28.97
2019-03-23T09:43:33.330Z,29.30
2019-03-23T09:46:04.094Z,26.70
2019-03-23T09:48:52.200Z,30.60
2019-03-23T09:51:23.634Z,33.23
2019-03-23T09:53:53.258Z,29.53
2019-03-23T09:56:25.242Z,33.37
2019-03-23T09:58:54.885Z,33.87
2019-03-23T10:01:24.550Z,34.67
2019-03-23T10:03:56.477Z,34.80
2019-03-23T10:06:26.090Z,36.27
2019-03-23T10:08:55.761Z,30.80
2019-03-23T10:11:27.144Z,36.70
2019-03-23T10:14:04.922Z,34.57
2019-03-23T10:16:34.825Z,35.47
2019-03-23T10:19:04.616Z,35.47
2019-03-23T10:21:34.336Z,37.27
2019-03-23T10:24:05.467Z,36.53
2019-03-23T10:26:35.105Z,37.13
2019-03-23T10:29:04.716Z,39.17
2019-03-23T10:31:34.311Z,39.63
2019-03-23T10:34:03.883Z,36.90
2019-03-23T10:36:33.574Z,40.17
2019-03-23T10:39:05.170Z,42.60
2019-03-23T10:41:35.078Z,36.40
2019-03-23T10:44:06.789Z,38.27
2019-03-23T10:46:36.435Z,42.13
2019-03-23T10:49:06.081Z,41.50
2019-03-23T10:51:37.102Z,36.97
2019-03-23T10:54:06.806Z,41.70
2019-03-23T10:56:36.374Z,40.57
2019-03-23T10:59:06.057Z,38.83
2019-03-23T11:01:35.699Z,40.10
2019-03-23T11:04:05.348Z,37.73
2019-03-23T11:06:35.032Z,41.03
2019-03-23T11:09:05.913Z,40.90
2019-03-23T11:11:35.523Z,40.47
2019-03-23T11:14:05.143Z,42.13
2019-03-23T11:16:34.696Z,42.10
2019-03-23T11:19:13.279Z,43.80
2019-03-23T11:21:36.520Z,42.33
2019-03-23T11:24:07.874Z,46.40
2019-03-23T11:26:38.616Z,41.77
2019-03-23T11:29:08.544Z,41.97
2019-03-23T11:31:38.311Z,41.70
2019-03-23T11:34:17.504Z,41.13
2019-03-23T11:36:40.519Z,41.13
2019-03-23T11:39:10.202Z,42.27
2019-03-23T11:41:39.849Z,40.27
2019-03-23T11:44:10.727Z,42.23
2019-03-23T11:46:42.404Z,38.80
2019-03-23T11:49:12.110Z,42.43
2019-03-23T11:51:41.720Z,41.73
2019-03-23T11:54:11.401Z,43.87
2019-03-23T11:56:42.298Z,45.63
2019-03-23T11:59:15.370Z,40.83
2019-03-23T12:01:51.753Z,45.73
2019-03-23T12:04:19.906Z,42.33
2019-03-23T12:06:51.757Z,39.17
2019-03-23T12:09:22.614Z,39.93
2019-03-23T12:11:52.274Z,39.30
2019-03-23T12:14:23.453Z,43.57
2019-03-23T12:16:53.084Z,38.57
2019-03-23T12:19:23.109Z,39.37
2019-03-23T12:21:52.948Z,41.07
2019-03-23T12:24:23.693Z,38.83
2019-03-23T12:26:55.466Z,39.53
2019-03-23T12:29:25.112Z,39.17
2019-03-23T12:31:54.785Z,43.73
2019-03-23T12:34:25.413Z,40.50
2019-03-23T12:36:55.029Z,40.73
2019-03-23T12:39:24.733Z,42.03
2019-03-23T12:41:54.378Z,40.80
2019-03-23T12:44:23.925Z,39.13
2019-03-23T12:46:53.596Z,44.03
2019-03-23T12:49:24.512Z,40.93
2019-03-23T12:51:54.176Z,44.33
2019-03-23T12:54:23.873Z,43.13
2019-03-23T12:56:53.613Z,39.40
2019-03-23T12:59:23.301Z,39.43
2019-03-23T13:01:53.015Z,36.30
2019-03-23T13:04:22.897Z,35.40
2019-03-23T13:06:52.868Z,40.00
2019-03-23T13:09:22.773Z,39.93
2019-03-23T13:11:52.419Z,36.27
2019-03-23T13:14:22.936Z,36.70
2019-03-23T13:16:52.547Z,34.40
2019-03-23T13:19:24.415Z,40.63
2019-03-23T13:21:54.569Z,37.37
2019-03-23T13:24:26.166Z,36.63
2019-03-23T13:26:55.829Z,35.17
2019-03-23T13:29:25.759Z,39.67
2019-03-23T13:31:56.335Z,41.47
2019-03-23T13:34:27.104Z,38.10
2019-03-23T13:36:56.810Z,35.87
2019-03-23T13:39:31.800Z,41.40
2019-03-23T13:42:01.414Z,46.27
2019-03-23T13:44:32.304Z,44.40
2019-03-23T13:47:04.690Z,35.27
2019-03-23T13:49:34.658Z,35.70
2019-03-23T13:52:04.354Z,39.50
2019-03-23T13:54:35.750Z,37.70
2019-03-23T13:57:05.824Z,36.23
2019-03-23T13:59:35.795Z,37.03
2019-03-23T14:02:05.478Z,37.30
2019-03-23T14:04:36.659Z,37.27
2019-03-23T14:07:06.297Z,38.93
2019-03-23T14:09:38.498Z,40.60
2019-03-23T14:12:08.140Z,41.57
2019-03-23T14:14:37.829Z,39.13
2019-03-23T14:17:07.649Z,37.77
2019-03-23T14:19:38.496Z,39.03
2019-03-23T14:22:09.214Z,41.37
2019-03-23T14:24:42.611Z,39.60
2019-03-23T14:27:12.472Z,38.43
2019-03-23T14:29:45.518Z,40.40
2019-03-23T14:32:15.263Z,34.27
2019-03-23T14:34:46.176Z,35.80
2019-03-23T14:37:16.113Z,40.27
2019-03-23T14:39:46.368Z,37.23
2019-03-23T14:42:16.327Z,39.07
2019-03-23T14:44:47.050Z,41.77
2019-03-23T14:47:17.052Z,43.10
2019-03-23T14:49:49.065Z,40.80
2019-03-23T14:52:18.869Z,41.83
2019-03-23T14:54:54.721Z,37.23
2019-03-23T14:57:24.983Z,41.63
2019-03-23T14:59:54.615Z,44.63
2019-03-23T15:02:26.560Z,40.10
2019-03-23T15:04:57.666Z,39.13
2019-03-23T15:07:27.244Z,44.10
2019-03-23T15:09:58.299Z,40.37
2019-03-23T15:12:28.202Z,40.37
2019-03-23T15:14:57.807Z,41.23
2019-03-23T15:17:27.487Z,41.50
2019-03-23T15:19:57.269Z,39.80
2019-03-23T15:22:29.093Z,38.23
2019-03-23T15:24:59.852Z,52.60
2019-03-23T15:27:29.590Z,46.27
2019-03-23T15:30:08.909Z,65.57
2019-03-23T15:32:38.996Z,52.67
2019-03-23T15:35:11.903Z,53.80
2019-03-23T15:37:42.613Z,52.13
2019-03-23T15:40:12.409Z,51.80
2019-03-23T15:42:42.075Z,49.43
2019-03-23T15:45:12.594Z,55.23
2019-03-23T15:47:42.228Z,53.23
2019-03-23T15:50:11.898Z,51.93
2019-03-23T15:52:41.538Z,48.50
2019-03-23T15:55:11.249Z,53.87
2019-03-23T15:57:41.255Z,57.67
2019-03-23T16:00:11.901Z,50.67
2019-03-23T16:02:41.559Z,50.73
2019-03-23T16:05:11.459Z,54.43
2019-03-23T16:07:41.217Z,46.50
2019-03-23T16:10:14.178Z,48.47
2019-03-23T16:12:47.042Z,48.20
2019-03-23T16:15:17.181Z,45.33
2019-03-23T16:17:46.922Z,45.73
2019-03-23T16:20:18.583Z,46.57
2019-03-23T16:22:50.545Z,43.87
2019-03-23T16:25:20.794Z,48.57
2019-03-23T16:27:50.697Z,45.03
2019-03-23T16:30:32.492Z,41.83
2019-03-23T16:33:04.467Z,41.23
2019-03-23T16:35:35.236Z,44.90
2019-03-23T16:38:04.923Z,41.83
2019-03-23T16:40:34.546Z,41.50
2019-03-23T16:43:06.261Z,45.70
2019-03-23T16:45:36.806Z,40.57
2019-03-23T16:48:07.561Z,45.70
2019-03-23T16:50:40.754Z,44.00
2019-03-23T16:53:10.415Z,44.23
2019-03-23T16:55:41.463Z,42.70
2019-03-23T16:58:15.971Z,43.77
2019-03-23T17:00:42.561Z,40.17
2019-03-23T17:03:14.475Z,44.20
2019-03-23T17:05:45.606Z,46.13
2019-03-23T17:08:17.705Z,44.63
2019-03-23T17:10:56.605Z,51.37
2019-03-23T17:13:26.321Z,47.63
2019-03-23T17:15:57.127Z,51.97
2019-03-23T17:18:26.906Z,51.07
2019-03-23T17:20:56.603Z,51.40
2019-03-23T17:23:29.622Z,53.77
2019-03-23T17:26:00.833Z,52.97
2019-03-23T17:28:30.463Z,52.23
2019-03-23T17:31:02.184Z,51.33
2019-03-23T17:33:36.932Z,54.97
2019-03-23T17:36:07.616Z,52.50
2019-03-23T17:38:41.529Z,58.80
2019-03-23T17:41:13.494Z,55.17
2019-03-23T17:43:43.214Z,56.47
2019-03-23T17:46:13.994Z,56.57
2019-03-23T17:48:44.003Z,56.23
2019-03-23T17:51:13.796Z,54.20
2019-03-23T17:53:43.403Z,58.20
2019-03-23T17:56:16.994Z,64.23
2019-03-23T17:58:48.970Z,57.40
2019-03-23T18:01:19.693Z,61.93
2019-03-23T18:03:51.647Z,66.40
2019-03-23T18:06:22.457Z,63.30
2019-03-23T18:08:52.075Z,60.93
2019-03-23T18:11:23.998Z,60.67
2019-03-23T18:13:53.749Z,59.63
2019-03-23T18:16:24.717Z,60.57
2019-03-23T18:18:54.377Z,59.43
2019-03-23T18:21:25.938Z,63.30
2019-03-23T18:23:55.859Z,61.10
2019-03-23T18:26:27.324Z,74.10
2019-03-23T18:28:57.195Z,60.43
2019-03-23T18:31:27.252Z,63.57
2019-03-23T18:33:57.527Z,62.93
2019-03-23T18:36:28.449Z,63.83
2019-03-23T18:38:59.117Z,69.87
2019-03-23T18:41:28.909Z,64.53
2019-03-23T18:43:59.177Z,58.87
2019-03-23T18:46:30.594Z,61.97
2019-03-23T18:49:00.494Z,70.20
2019-03-23T18:51:30.148Z,70.27
2019-03-23T18:54:00.047Z,68.77
2019-03-23T18:56:30.805Z,72.13
2019-03-23T18:59:00.613Z,71.63
2019-03-23T19:01:30.260Z,66.37
2019-03-23T19:04:01.804Z,73.17
2019-03-23T19:06:33.443Z,69.80
2019-03-23T19:09:03.853Z,69.73
2019-03-23T19:11:33.441Z,71.17
2019-03-23T19:14:05.587Z,74.23
2019-03-23T19:16:35.483Z,69.67
2019-03-23T19:19:05.213Z,68.87
2019-03-23T19:21:34.945Z,61.67
2019-03-23T19:24:04.549Z,66.87
2019-03-23T19:26:34.333Z,63.53
2019-03-23T19:29:03.889Z,69.13
2019-03-23T19:31:33.574Z,66.80
2019-03-23T19:34:03.232Z,71.37
2019-03-23T19:36:32.912Z,74.10
2019-03-23T19:39:05.108Z,73.23
2019-03-23T19:41:34.840Z,75.40
2019-03-23T19:44:04.633Z,66.53
2019-03-23T19:46:35.465Z,74.43
2019-03-23T19:49:05.174Z,75.97
2019-03-23T19:51:34.851Z,78.33
2019-03-23T19:54:04.784Z,72.13
2019-03-23T19:56:34.676Z,70.93
2019-03-23T19:59:04.308Z,81.10
2019-03-23T20:01:34.010Z,88.33
2019-03-23T20:04:04.296Z,96.37
2019-03-23T20:06:33.983Z,93.03
2019-03-23T20:09:04.181Z,89.90
2019-03-23T20:11:33.914Z,97.33
2019-03-23T20:14:04.766Z,120.47
2019-03-23T20:16:35.918Z,100.87
2019-03-23T20:19:05.671Z,104.10
2019-03-23T20:21:35.596Z,103.80
2019-03-23T20:24:05.519Z,100.70
2019-03-23T20:26:36.335Z,102.90
2019-03-23T20:29:06.033Z,104.83
2019-03-23T20:31:37.989Z,98.00
2019-03-23T20:34:09.039Z,104.70
2019-03-23T20:36:43.287Z,110.83
2019-03-23T20:39:12.915Z,104.07
2019-03-23T20:41:42.767Z,107.47
2019-03-23T20:44:13.633Z,101.40
2019-03-23T20:46:44.741Z,97.00
2019-03-23T20:49:14.412Z,99.43
2019-03-23T20:51:44.066Z,96.00
2019-03-23T20:54:14.871Z,101.10
2019-03-23T20:56:45.725Z,102.07
2019-03-23T20:59:15.736Z,101.57
2019-03-23T21:01:45.470Z,99.73
2019-03-23T21:04:15.094Z,100.60
2019-03-23T21:06:45.945Z,98.60
2019-03-23T21:09:15.623Z,95.73
2019-03-23T21:11:45.241Z,102.93
2019-03-23T21:14:20.137Z,101.53
2019-03-23T21:16:47.606Z,97.20
2019-03-23T21:19:17.308Z,101.30
2019-03-23T21:21:49.053Z,99.77
2019-03-23T21:24:18.739Z,95.67
2019-03-23T21:26:48.460Z,103.60
2019-03-23T21:29:18.172Z,104.07
2019-03-23T21:31:47.857Z,101.57
2019-03-23T21:34:17.644Z,105.40
2019-03-23T21:36:47.330Z,101.13
2019-03-23T21:39:17.039Z,103.60
2019-03-23T21:41:46.687Z,97.47
2019-03-23T21:44:18.722Z,95.53
2019-03-23T21:46:50.487Z,94.00
2019-03-23T21:49:20.079Z,104.53
2019-03-23T21:51:49.753Z,95.43
2019-03-23T21:54:20.422Z,94.83
2019-03-23T21:56:51.965Z,91.50
2019-03-23T21:59:21.702Z,105.63
2019-03-23T22:01:51.435Z,99.87
2019-03-23T22:04:21.103Z,103.63
2019-03-23T22:06:52.052Z,96.03
2019-03-23T22:09:21.655Z,106.30
2019-03-23T22:12:01.719Z,103.43
2019-03-23T22:14:41.278Z,103.80
2019-03-23T22:17:08.996Z,98.73
2019-03-23T22:19:38.608Z,109.30
2019-03-23T22:22:08.272Z,96.40
2019-03-23T22:24:38.161Z,91.40
2019-03-23T22:27:10.503Z,97.03
2019-03-23T22:29:41.224Z,94.43
2019-03-23T22:32:14.698Z,96.47
2019-03-23T22:34:49.415Z,100.13
2019-03-23T22:37:23.976Z,98.23
2019-03-23T22:39:55.307Z,95.93
2019-03-23T22:42:25.041Z,98.90
2019-03-23T22:44:54.698Z,96.00
2019-03-23T22:47:25.574Z,102.37
2019-03-23T22:49:55.152Z,103.70
2019-03-23T22:52:26.751Z,97.40
2019-03-23T22:54:56.341Z,94.57
2019-03-23T22:57:26.699Z,95.10
2019-03-23T22:59:56.397Z,91.53
2019-03-23T23:02:26.054Z,89.00
2019-03-23T23:04:55.640Z,89.03
2019-03-23T23:07:27.873Z,98.17
2019-03-23T23:09:57.502Z,94.80
2019-03-23T23:12:27.262Z,99.93
2019-03-23T23:15:04.433Z,92.17
2019-03-23T23:17:28.318Z,97.87
2019-03-23T23:19:57.972Z,98.27
2019-03-23T23:22:27.618Z,105.10
2019-03-23T23:24:57.328Z,99.40
2019-03-23T23:27:26.967Z,105.00
2019-03-23T23:29:56.609Z,103.17
2019-03-23T23:32:26.242Z,100.23
2019-03-23T23:34:55.903Z,99.13
2019-03-23T23:37:25.531Z,97.37
2019-03-23T23:39:55.144Z,97.67
2019-03-23T23:42:26.943Z,95.87
2019-03-23T23:44:56.659Z,99.23
2019-03-23T23:47:27.941Z,88.40
2019-03-23T23:50:01.645Z,94.50
2019-03-23T23:52:31.384Z,95.63
2019-03-23T23:55:01.059Z,95.13
2019-03-23T23:57:30.745Z,95.37
